sensor_id;sensor_type;location;lat;lon;timestamp;P1;durP1;ratioP1;P2;durP2;ratioP2
6249;SDS011;3158;52.148;11.568;2023-07-29T00:00:33;0.88;;;0.88;;
6249;SDS011;3158;52.148;11.568;2023-07-29T00:05:34;0.93;;;0.93;;
6249;SDS011;3158;52.148;11.568;2023-07-29T00:10:36;1.00;;;1.00;;
6249;SDS011;3158;52.148;11.568;2023-07-29T00:15:37;0.90;;;0.90;;
6249;SDS011;3158;52.148;11.568;2023-07-29T00:20:38;1.02;;;1.02;;
6249;SDS011;3158;52.148;11.568;2023-07-29T00:25:39;1.25;;;1.10;;
6249;SDS011;3158;52.148;11.568;2023-07-29T00:30:41;0.77;;;0.77;;
6249;SDS011;3158;52.148;11.568;2023-07-29T00:35:42;0.65;;;0.65;;
6249;SDS011;3158;52.148;11.568;2023-07-29T00:40:43;1.00;;;1.00;;
6249;SDS011;3158;52.148;11.568;2023-07-29T00:45:44;0.93;;;0.93;;
6249;SDS011;3158;52.148;11.568;2023-07-29T00:50:47;0.95;;;0.95;;
6249;SDS011;3158;52.148;11.568;2023-07-29T00:55:48;0.85;;;0.80;;
6249;SDS011;3158;52.148;11.568;2023-07-29T01:00:50;0.90;;;0.90;;
6249;SDS011;3158;52.148;11.568;2023-07-29T01:06:26;0.75;;;0.75;;
6249;SDS011;3158;52.148;11.568;2023-07-29T01:16:30;1.98;;;1.10;;
6249;SDS011;3158;52.148;11.568;2023-07-29T01:21:35;0.77;;;0.77;;
6249;SDS011;3158;52.148;11.568;2023-07-29T01:26:36;1.10;;;1.05;;
6249;SDS011;3158;52.148;11.568;2023-07-29T01:31:39;1.38;;;0.80;;
6249;SDS011;3158;52.148;11.568;2023-07-29T01:36:43;1.60;;;1.50;;
6249;SDS011;3158;52.148;11.568;2023-07-29T01:41:45;1.20;;;1.20;;
6249;SDS011;3158;52.148;11.568;2023-07-29T01:46:47;4.32;;;1.23;;
6249;SDS011;3158;52.148;11.568;2023-07-29T01:51:50;1.60;;;1.50;;
6249;SDS011;3158;52.148;11.568;2023-07-29T01:56:51;1.50;;;1.40;;
6249;SDS011;3158;52.148;11.568;2023-07-29T02:01:52;1.15;;;1.15;;
6249;SDS011;3158;52.148;11.568;2023-07-29T02:06:53;1.58;;;1.38;;
6249;SDS011;3158;52.148;11.568;2023-07-29T02:11:55;0.93;;;0.93;;
6249;SDS011;3158;52.148;11.568;2023-07-29T02:16:56;0.98;;;0.98;;
6249;SDS011;3158;52.148;11.568;2023-07-29T02:21:57;1.10;;;1.10;;
6249;SDS011;3158;52.148;11.568;2023-07-29T02:26:59;1.05;;;1.05;;
6249;SDS011;3158;52.148;11.568;2023-07-29T02:32:00;1.10;;;1.10;;
6249;SDS011;3158;52.148;11.568;2023-07-29T02:37:01;1.65;;;1.30;;
6249;SDS011;3158;52.148;11.568;2023-07-29T02:42:02;1.05;;;1.05;;
6249;SDS011;3158;52.148;11.568;2023-07-29T02:47:03;1.13;;;1.13;;
6249;SDS011;3158;52.148;11.568;2023-07-29T02:52:04;0.77;;;0.77;;
6249;SDS011;3158;52.148;11.568;2023-07-29T02:57:05;10.75;;;1.40;;
6249;SDS011;3158;52.148;11.568;2023-07-29T03:02:07;1.35;;;1.30;;
6249;SDS011;3158;52.148;11.568;2023-07-29T03:07:08;0.95;;;0.95;;
6249;SDS011;3158;52.148;11.568;2023-07-29T03:12:09;2.92;;;1.42;;
6249;SDS011;3158;52.148;11.568;2023-07-29T03:17:11;1.45;;;1.35;;
6249;SDS011;3158;52.148;11.568;2023-07-29T03:22:12;1.00;;;1.00;;
6249;SDS011;3158;52.148;11.568;2023-07-29T03:27:13;0.95;;;0.95;;
6249;SDS011;3158;52.148;11.568;2023-07-29T03:32:16;1.27;;;1.27;;
6249;SDS011;3158;52.148;11.568;2023-07-29T03:37:17;0.95;;;0.95;;
6249;SDS011;3158;52.148;11.568;2023-07-29T03:42:18;3.92;;;1.40;;
6249;SDS011;3158;52.148;11.568;2023-07-29T03:47:19;0.93;;;0.93;;
6249;SDS011;3158;52.148;11.568;2023-07-29T03:52:20;1.02;;;1.02;;
6249;SDS011;3158;52.148;11.568;2023-07-29T03:57:21;0.93;;;0.93;;
6249;SDS011;3158;52.148;11.568;2023-07-29T04:02:22;1.45;;;1.00;;
6249;SDS011;3158;52.148;11.568;2023-07-29T04:07:24;1.70;;;1.60;;
6249;SDS011;3158;52.148;11.568;2023-07-29T04:12:25;1.05;;;1.05;;
6249;SDS011;3158;52.148;11.568;2023-07-29T04:17:26;0.80;;;0.80;;
6249;SDS011;3158;52.148;11.568;2023-07-29T04:22:27;0.70;;;0.70;;
6249;SDS011;3158;52.148;11.568;2023-07-29T04:27:28;1.10;;;1.10;;
6249;SDS011;3158;52.148;11.568;2023-07-29T04:32:29;1.10;;;1.10;;
6249;SDS011;3158;52.148;11.568;2023-07-29T04:37:30;0.70;;;0.70;;
6249;SDS011;3158;52.148;11.568;2023-07-29T04:42:31;0.80;;;0.80;;
6249;SDS011;3158;52.148;11.568;2023-07-29T04:47:33;0.90;;;0.90;;
6249;SDS011;3158;52.148;11.568;2023-07-29T04:52:34;0.90;;;0.90;;
6249;SDS011;3158;52.148;11.568;2023-07-29T04:57:35;0.80;;;0.80;;
6249;SDS011;3158;52.148;11.568;2023-07-29T05:02:36;0.77;;;0.77;;
6249;SDS011;3158;52.148;11.568;2023-07-29T05:07:37;0.70;;;0.70;;
6249;SDS011;3158;52.148;11.568;2023-07-29T05:12:39;0.40;;;0.40;;
6249;SDS011;3158;52.148;11.568;2023-07-29T05:17:40;0.50;;;0.50;;
6249;SDS011;3158;52.148;11.568;2023-07-29T05:22:41;0.60;;;0.60;;
6249;SDS011;3158;52.148;11.568;2023-07-29T05:27:42;0.52;;;0.50;;
6249;SDS011;3158;52.148;11.568;2023-07-29T05:32:43;0.50;;;0.50;;
6249;SDS011;3158;52.148;11.568;2023-07-29T05:37:44;0.35;;;0.35;;
6249;SDS011;3158;52.148;11.568;2023-07-29T05:42:45;2.10;;;0.47;;
6249;SDS011;3158;52.148;11.568;2023-07-29T05:47:46;0.40;;;0.40;;
6249;SDS011;3158;52.148;11.568;2023-07-29T05:52:47;0.40;;;0.40;;
6249;SDS011;3158;52.148;11.568;2023-07-29T05:57:48;0.40;;;0.40;;
6249;SDS011;3158;52.148;11.568;2023-07-29T06:02:49;0.50;;;0.50;;
6249;SDS011;3158;52.148;11.568;2023-07-29T06:07:54;0.35;;;0.35;;
6249;SDS011;3158;52.148;11.568;2023-07-29T06:12:55;0.35;;;0.35;;
6249;SDS011;3158;52.148;11.568;2023-07-29T06:17:56;0.30;;;0.30;;
6249;SDS011;3158;52.148;11.568;2023-07-29T06:22:58;0.30;;;0.30;;
6249;SDS011;3158;52.148;11.568;2023-07-29T06:27:59;0.30;;;0.30;;
6249;SDS011;3158;52.148;11.568;2023-07-29T06:33:00;0.40;;;0.40;;
6249;SDS011;3158;52.148;11.568;2023-07-29T06:38:03;3.13;;;0.30;;
6249;SDS011;3158;52.148;11.568;2023-07-29T06:43:04;0.40;;;0.40;;
6249;SDS011;3158;52.148;11.568;2023-07-29T06:48:05;0.30;;;0.30;;
6249;SDS011;3158;52.148;11.568;2023-07-29T06:53:06;7.75;;;0.45;;
6249;SDS011;3158;52.148;11.568;2023-07-29T06:58:07;0.40;;;0.40;;
6249;SDS011;3158;52.148;11.568;2023-07-29T07:03:08;0.32;;;0.32;;
6249;SDS011;3158;52.148;11.568;2023-07-29T07:08:09;0.40;;;0.40;;
6249;SDS011;3158;52.148;11.568;2023-07-29T07:13:10;0.45;;;0.45;;
6249;SDS011;3158;52.148;11.568;2023-07-29T07:18:12;0.30;;;0.30;;
6249;SDS011;3158;52.148;11.568;2023-07-29T07:23:13;0.30;;;0.30;;
6249;SDS011;3158;52.148;11.568;2023-07-29T07:28:15;0.40;;;0.30;;
6249;SDS011;3158;52.148;11.568;2023-07-29T07:33:16;0.38;;;0.38;;
6249;SDS011;3158;52.148;11.568;2023-07-29T07:38:18;0.30;;;0.30;;
6249;SDS011;3158;52.148;11.568;2023-07-29T07:43:19;0.40;;;0.40;;
6249;SDS011;3158;52.148;11.568;2023-07-29T07:48:20;0.30;;;0.30;;
6249;SDS011;3158;52.148;11.568;2023-07-29T07:53:21;0.68;;;0.47;;
6249;SDS011;3158;52.148;11.568;2023-07-29T07:58:22;0.32;;;0.32;;
6249;SDS011;3158;52.148;11.568;2023-07-29T08:03:23;0.40;;;0.40;;
6249;SDS011;3158;52.148;11.568;2023-07-29T08:08:25;0.30;;;0.30;;
6249;SDS011;3158;52.148;11.568;2023-07-29T08:13:26;0.35;;;0.35;;
6249;SDS011;3158;52.148;11.568;2023-07-29T08:18:27;0.40;;;0.40;;
6249;SDS011;3158;52.148;11.568;2023-07-29T08:23:29;1.85;;;0.40;;
6249;SDS011;3158;52.148;11.568;2023-07-29T08:28:31;0.30;;;0.30;;
6249;SDS011;3158;52.148;11.568;2023-07-29T08:33:33;0.30;;;0.30;;
6249;SDS011;3158;52.148;11.568;2023-07-29T08:38:34;0.45;;;0.45;;
6249;SDS011;3158;52.148;11.568;2023-07-29T08:43:36;0.30;;;0.30;;
6249;SDS011;3158;52.148;11.568;2023-07-29T08:48:42;0.50;;;0.50;;
6249;SDS011;3158;52.148;11.568;2023-07-29T08:53:43;0.40;;;0.40;;
6249;SDS011;3158;52.148;11.568;2023-07-29T08:58:44;2.08;;;0.52;;
6249;SDS011;3158;52.148;11.568;2023-07-29T09:03:46;1.05;;;0.57;;
6249;SDS011;3158;52.148;11.568;2023-07-29T09:08:47;0.40;;;0.40;;
6249;SDS011;3158;52.148;11.568;2023-07-29T09:13:49;0.60;;;0.60;;
6249;SDS011;3158;52.148;11.568;2023-07-29T09:18:51;1.98;;;0.50;;
6249;SDS011;3158;52.148;11.568;2023-07-29T09:23:52;0.93;;;0.30;;
6249;SDS011;3158;52.148;11.568;2023-07-29T09:28:56;0.40;;;0.40;;
6249;SDS011;3158;52.148;11.568;2023-07-29T09:34:01;0.28;;;0.28;;
6249;SDS011;3158;52.148;11.568;2023-07-29T09:39:02;1.20;;;0.30;;
6249;SDS011;3158;52.148;11.568;2023-07-29T09:44:04;0.40;;;0.35;;
6249;SDS011;3158;52.148;11.568;2023-07-29T09:49:06;0.20;;;0.20;;
6249;SDS011;3158;52.148;11.568;2023-07-29T09:54:07;0.20;;;0.20;;
6249;SDS011;3158;52.148;11.568;2023-07-29T09:59:10;0.38;;;0.38;;
6249;SDS011;3158;52.148;11.568;2023-07-29T10:04:12;0.10;;;0.10;;
6249;SDS011;3158;52.148;11.568;2023-07-29T10:09:14;0.60;;;0.10;;
6249;SDS011;3158;52.148;11.568;2023-07-29T10:14:15;0.05;;;0.05;;
6249;SDS011;3158;52.148;11.568;2023-07-29T10:19:17;1.55;;;0.20;;
6249;SDS011;3158;52.148;11.568;2023-07-29T10:24:19;0.10;;;0.10;;
6249;SDS011;3158;52.148;11.568;2023-07-29T10:29:30;0.13;;;0.13;;
6249;SDS011;3158;52.148;11.568;2023-07-29T10:34:34;0.00;;;0.00;;
6249;SDS011;3158;52.148;11.568;2023-07-29T10:39:40;0.10;;;0.10;;
6249;SDS011;3158;52.148;11.568;2023-07-29T10:44:46;0.13;;;0.13;;
6249;SDS011;3158;52.148;11.568;2023-07-29T10:49:50;0.08;;;0.08;;
6249;SDS011;3158;52.148;11.568;2023-07-29T10:54:51;0.10;;;0.10;;
6249;SDS011;3158;52.148;11.568;2023-07-29T10:59:54;0.10;;;0.10;;
6249;SDS011;3158;52.148;11.568;2023-07-29T11:04:58;0.10;;;0.10;;
6249;SDS011;3158;52.148;11.568;2023-07-29T11:10:01;0.43;;;0.20;;
6249;SDS011;3158;52.148;11.568;2023-07-29T11:15:04;1.75;;;0.30;;
6249;SDS011;3158;52.148;11.568;2023-07-29T11:20:05;0.22;;;0.22;;
6249;SDS011;3158;52.148;11.568;2023-07-29T11:25:13;1.17;;;0.20;;
6249;SDS011;3158;52.148;11.568;2023-07-29T11:30:15;0.25;;;0.25;;
6249;SDS011;3158;52.148;11.568;2023-07-29T11:35:17;0.20;;;0.20;;
6249;SDS011;3158;52.148;11.568;2023-07-29T11:40:19;0.20;;;0.20;;
6249;SDS011;3158;52.148;11.568;2023-07-29T11:45:23;0.75;;;0.35;;
6249;SDS011;3158;52.148;11.568;2023-07-29T11:50:24;0.22;;;0.22;;
6249;SDS011;3158;52.148;11.568;2023-07-29T11:55:25;1.65;;;0.20;;
6249;SDS011;3158;52.148;11.568;2023-07-29T12:00:26;0.28;;;0.28;;
6249;SDS011;3158;52.148;11.568;2023-07-29T12:05:27;0.40;;;0.40;;
6249;SDS011;3158;52.148;11.568;2023-07-29T12:10:29;0.30;;;0.30;;
6249;SDS011;3158;52.148;11.568;2023-07-29T12:15:30;0.30;;;0.30;;
6249;SDS011;3158;52.148;11.568;2023-07-29T12:20:31;0.43;;;0.30;;
6249;SDS011;3158;52.148;11.568;2023-07-29T12:25:33;2.88;;;0.38;;
6249;SDS011;3158;52.148;11.568;2023-07-29T12:30:34;0.55;;;0.40;;
6249;SDS011;3158;52.148;11.568;2023-07-29T12:35:36;0.47;;;0.47;;
6249;SDS011;3158;52.148;11.568;2023-07-29T12:40:37;0.40;;;0.40;;
6249;SDS011;3158;52.148;11.568;2023-07-29T12:45:40;0.40;;;0.40;;
6249;SDS011;3158;52.148;11.568;2023-07-29T12:50:42;0.50;;;0.50;;
6249;SDS011;3158;52.148;11.568;2023-07-29T12:55:43;0.43;;;0.43;;
6249;SDS011;3158;52.148;11.568;2023-07-29T13:00:44;0.55;;;0.55;;
6249;SDS011;3158;52.148;11.568;2023-07-29T13:05:45;0.40;;;0.40;;
6249;SDS011;3158;52.148;11.568;2023-07-29T13:10:46;0.50;;;0.50;;
6249;SDS011;3158;52.148;11.568;2023-07-29T13:15:47;0.60;;;0.60;;
6249;SDS011;3158;52.148;11.568;2023-07-29T13:20:48;0.60;;;0.60;;
6249;SDS011;3158;52.148;11.568;2023-07-29T13:25:50;0.60;;;0.60;;
6249;SDS011;3158;52.148;11.568;2023-07-29T13:30:51;0.80;;;0.80;;
6249;SDS011;3158;52.148;11.568;2023-07-29T13:35:52;0.55;;;0.55;;
6249;SDS011;3158;52.148;11.568;2023-07-29T13:40:54;0.68;;;0.68;;
6249;SDS011;3158;52.148;11.568;2023-07-29T13:45:55;0.95;;;0.57;;
6249;SDS011;3158;52.148;11.568;2023-07-29T13:50:56;0.70;;;0.70;;
6249;SDS011;3158;52.148;11.568;2023-07-29T13:55:57;0.60;;;0.60;;
6249;SDS011;3158;52.148;11.568;2023-07-29T14:00:58;0.70;;;0.70;;
6249;SDS011;3158;52.148;11.568;2023-07-29T14:05:59;0.85;;;0.85;;
6249;SDS011;3158;52.148;11.568;2023-07-29T14:11:00;0.95;;;0.95;;
6249;SDS011;3158;52.148;11.568;2023-07-29T14:16:01;1.05;;;1.05;;
6249;SDS011;3158;52.148;11.568;2023-07-29T14:21:02;0.88;;;0.88;;
6249;SDS011;3158;52.148;11.568;2023-07-29T14:26:04;2.47;;;0.80;;
6249;SDS011;3158;52.148;11.568;2023-07-29T14:31:05;2.17;;;1.00;;
6249;SDS011;3158;52.148;11.568;2023-07-29T14:36:06;1.20;;;1.10;;
6249;SDS011;3158;52.148;11.568;2023-07-29T14:41:07;1.25;;;1.00;;
6249;SDS011;3158;52.148;11.568;2023-07-29T14:46:09;1.00;;;1.00;;
6249;SDS011;3158;52.148;11.568;2023-07-29T14:51:10;0.98;;;0.98;;
6249;SDS011;3158;52.148;11.568;2023-07-29T14:56:11;0.90;;;0.90;;
6249;SDS011;3158;52.148;11.568;2023-07-29T15:01:13;1.08;;;1.08;;
6249;SDS011;3158;52.148;11.568;2023-07-29T15:06:14;1.10;;;1.10;;
6249;SDS011;3158;52.148;11.568;2023-07-29T15:11:16;0.98;;;0.98;;
6249;SDS011;3158;52.148;11.568;2023-07-29T15:16:17;0.73;;;0.73;;
6249;SDS011;3158;52.148;11.568;2023-07-29T15:21:18;0.50;;;0.50;;
6249;SDS011;3158;52.148;11.568;2023-07-29T15:26:19;0.40;;;0.40;;
6249;SDS011;3158;52.148;11.568;2023-07-29T15:31:20;0.35;;;0.35;;
6249;SDS011;3158;52.148;11.568;2023-07-29T15:36:21;0.50;;;0.50;;
6249;SDS011;3158;52.148;11.568;2023-07-29T15:41:22;2.10;;;0.30;;
6249;SDS011;3158;52.148;11.568;2023-07-29T15:46:24;0.20;;;0.20;;
6249;SDS011;3158;52.148;11.568;2023-07-29T15:51:26;0.20;;;0.20;;
6249;SDS011;3158;52.148;11.568;2023-07-29T15:56:27;0.43;;;0.38;;
6249;SDS011;3158;52.148;11.568;2023-07-29T16:01:28;0.28;;;0.28;;
6249;SDS011;3158;52.148;11.568;2023-07-29T16:06:29;0.43;;;0.20;;
6249;SDS011;3158;52.148;11.568;2023-07-29T16:11:31;0.32;;;0.30;;
6249;SDS011;3158;52.148;11.568;2023-07-29T16:16:32;0.22;;;0.22;;
6249;SDS011;3158;52.148;11.568;2023-07-29T16:21:33;1.10;;;0.20;;
6249;SDS011;3158;52.148;11.568;2023-07-29T16:26:34;0.20;;;0.20;;
6249;SDS011;3158;52.148;11.568;2023-07-29T16:31:35;0.40;;;0.30;;
6249;SDS011;3158;52.148;11.568;2023-07-29T16:36:36;0.22;;;0.22;;
6249;SDS011;3158;52.148;11.568;2023-07-29T16:41:39;0.20;;;0.20;;
6249;SDS011;3158;52.148;11.568;2023-07-29T16:46:40;0.20;;;0.20;;
6249;SDS011;3158;52.148;11.568;2023-07-29T16:51:41;0.20;;;0.20;;
6249;SDS011;3158;52.148;11.568;2023-07-29T16:56:43;0.25;;;0.25;;
6249;SDS011;3158;52.148;11.568;2023-07-29T17:01:45;0.30;;;0.30;;
6249;SDS011;3158;52.148;11.568;2023-07-29T17:06:46;0.20;;;0.20;;
6249;SDS011;3158;52.148;11.568;2023-07-29T17:11:47;0.25;;;0.25;;
6249;SDS011;3158;52.148;11.568;2023-07-29T17:16:48;0.10;;;0.10;;
6249;SDS011;3158;52.148;11.568;2023-07-29T17:21:49;1.00;;;0.28;;
6249;SDS011;3158;52.148;11.568;2023-07-29T17:26:50;0.28;;;0.28;;
6249;SDS011;3158;52.148;11.568;2023-07-29T17:31:51;2.05;;;0.30;;
6249;SDS011;3158;52.148;11.568;2023-07-29T17:36:53;0.40;;;0.40;;
6249;SDS011;3158;52.148;11.568;2023-07-29T17:41:54;0.20;;;0.20;;
6249;SDS011;3158;52.148;11.568;2023-07-29T17:46:55;0.20;;;0.20;;
6249;SDS011;3158;52.148;11.568;2023-07-29T17:51:56;0.20;;;0.20;;
6249;SDS011;3158;52.148;11.568;2023-07-29T17:56:57;0.20;;;0.20;;
6249;SDS011;3158;52.148;11.568;2023-07-29T18:01:58;0.20;;;0.20;;
6249;SDS011;3158;52.148;11.568;2023-07-29T18:06:59;0.30;;;0.30;;
6249;SDS011;3158;52.148;11.568;2023-07-29T18:12:00;0.25;;;0.25;;
6249;SDS011;3158;52.148;11.568;2023-07-29T18:17:01;0.40;;;0.40;;
6249;SDS011;3158;52.148;11.568;2023-07-29T18:22:03;0.30;;;0.30;;
6249;SDS011;3158;52.148;11.568;2023-07-29T18:27:04;0.40;;;0.40;;
6249;SDS011;3158;52.148;11.568;2023-07-29T18:32:07;0.40;;;0.40;;
6249;SDS011;3158;52.148;11.568;2023-07-29T18:37:08;0.50;;;0.50;;
6249;SDS011;3158;52.148;11.568;2023-07-29T18:42:09;0.40;;;0.40;;
6249;SDS011;3158;52.148;11.568;2023-07-29T18:47:11;0.40;;;0.40;;
6249;SDS011;3158;52.148;11.568;2023-07-29T18:52:12;0.50;;;0.50;;
6249;SDS011;3158;52.148;11.568;2023-07-29T18:57:13;0.65;;;0.65;;
6249;SDS011;3158;52.148;11.568;2023-07-29T19:02:14;0.50;;;0.50;;
6249;SDS011;3158;52.148;11.568;2023-07-29T19:07:16;0.50;;;0.50;;
6249;SDS011;3158;52.148;11.568;2023-07-29T19:12:19;0.60;;;0.60;;
6249;SDS011;3158;52.148;11.568;2023-07-29T19:17:20;0.60;;;0.60;;
6249;SDS011;3158;52.148;11.568;2023-07-29T19:22:21;0.50;;;0.50;;
6249;SDS011;3158;52.148;11.568;2023-07-29T19:27:22;0.50;;;0.50;;
6249;SDS011;3158;52.148;11.568;2023-07-29T19:32:23;0.68;;;0.68;;
6249;SDS011;3158;52.148;11.568;2023-07-29T19:37:24;1.88;;;0.50;;
6249;SDS011;3158;52.148;11.568;2023-07-29T19:42:26;0.60;;;0.60;;
6249;SDS011;3158;52.148;11.568;2023-07-29T19:47:27;0.57;;;0.57;;
6249;SDS011;3158;52.148;11.568;2023-07-29T19:52:28;0.82;;;0.77;;
6249;SDS011;3158;52.148;11.568;2023-07-29T19:57:30;0.60;;;0.60;;
6249;SDS011;3158;52.148;11.568;2023-07-29T20:02:31;0.52;;;0.52;;
6249;SDS011;3158;52.148;11.568;2023-07-29T20:07:32;0.88;;;0.88;;
6249;SDS011;3158;52.148;11.568;2023-07-29T20:12:33;0.68;;;0.68;;
6249;SDS011;3158;52.148;11.568;2023-07-29T20:17:34;0.70;;;0.70;;
6249;SDS011;3158;52.148;11.568;2023-07-29T20:22:35;0.60;;;0.60;;
6249;SDS011;3158;52.148;11.568;2023-07-29T20:27:37;1.23;;;1.17;;
6249;SDS011;3158;52.148;11.568;2023-07-29T20:32:38;1.30;;;1.02;;
6249;SDS011;3158;52.148;11.568;2023-07-29T20:37:39;0.65;;;0.65;;
6249;SDS011;3158;52.148;11.568;2023-07-29T20:42:40;0.63;;;0.63;;
6249;SDS011;3158;52.148;11.568;2023-07-29T20:47:41;0.65;;;0.65;;
6249;SDS011;3158;52.148;11.568;2023-07-29T20:52:42;0.80;;;0.80;;
6249;SDS011;3158;52.148;11.568;2023-07-29T20:57:43;0.80;;;0.80;;
6249;SDS011;3158;52.148;11.568;2023-07-29T21:02:45;1.50;;;0.90;;
6249;SDS011;3158;52.148;11.568;2023-07-29T21:07:46;0.73;;;0.73;;
6249;SDS011;3158;52.148;11.568;2023-07-29T21:12:47;0.60;;;0.60;;
6249;SDS011;3158;52.148;11.568;2023-07-29T21:17:48;0.77;;;0.77;;
6249;SDS011;3158;52.148;11.568;2023-07-29T21:22:49;0.93;;;0.93;;
6249;SDS011;3158;52.148;11.568;2023-07-29T21:27:50;0.90;;;0.90;;
6249;SDS011;3158;52.148;11.568;2023-07-29T21:32:51;0.65;;;0.65;;
6249;SDS011;3158;52.148;11.568;2023-07-29T21:37:52;0.70;;;0.70;;
6249;SDS011;3158;52.148;11.568;2023-07-29T21:42:53;0.90;;;0.90;;
6249;SDS011;3158;52.148;11.568;2023-07-29T21:47:55;0.93;;;0.93;;
6249;SDS011;3158;52.148;11.568;2023-07-29T21:52:56;0.55;;;0.55;;
6249;SDS011;3158;52.148;11.568;2023-07-29T21:57:57;0.57;;;0.57;;
6249;SDS011;3158;52.148;11.568;2023-07-29T22:02:58;0.63;;;0.63;;
6249;SDS011;3158;52.148;11.568;2023-07-29T22:07:59;0.43;;;0.43;;
6249;SDS011;3158;52.148;11.568;2023-07-29T22:13:00;1.50;;;0.63;;
6249;SDS011;3158;52.148;11.568;2023-07-29T22:18:01;0.77;;;0.50;;
6249;SDS011;3158;52.148;11.568;2023-07-29T22:23:02;1.50;;;0.60;;
6249;SDS011;3158;52.148;11.568;2023-07-29T22:28:03;0.73;;;0.40;;
6249;SDS011;3158;52.148;11.568;2023-07-29T22:33:04;0.65;;;0.65;;
6249;SDS011;3158;52.148;11.568;2023-07-29T22:38:05;0.40;;;0.40;;
6249;SDS011;3158;52.148;11.568;2023-07-29T22:43:07;0.40;;;0.40;;
6249;SDS011;3158;52.148;11.568;2023-07-29T22:48:08;0.57;;;0.57;;
6249;SDS011;3158;52.148;11.568;2023-07-29T22:53:09;0.40;;;0.40;;
6249;SDS011;3158;52.148;11.568;2023-07-29T22:58:11;0.77;;;0.50;;
6249;SDS011;3158;52.148;11.568;2023-07-29T23:03:12;0.60;;;0.60;;
6249;SDS011;3158;52.148;11.568;2023-07-29T23:08:13;0.50;;;0.50;;
6249;SDS011;3158;52.148;11.568;2023-07-29T23:13:14;0.45;;;0.45;;
6249;SDS011;3158;52.148;11.568;2023-07-29T23:18:15;0.40;;;0.40;;
6249;SDS011;3158;52.148;11.568;2023-07-29T23:23:16;0.35;;;0.35;;
6249;SDS011;3158;52.148;11.568;2023-07-29T23:28:17;0.50;;;0.50;;
6249;SDS011;3158;52.148;11.568;2023-07-29T23:33:18;0.52;;;0.52;;
6249;SDS011;3158;52.148;11.568;2023-07-29T23:38:20;2.95;;;0.90;;
6249;SDS011;3158;52.148;11.568;2023-07-29T23:43:21;0.75;;;0.75;;
6249;SDS011;3158;52.148;11.568;2023-07-29T23:48:23;0.65;;;0.65;;
6249;SDS011;3158;52.148;11.568;2023-07-29T23:53:24;0.60;;;0.60;;
6249;SDS011;3158;52.148;11.568;2023-07-29T23:58:25;0.43;;;0.43;;
